sensor_id;sensor_type;location;lat;lon;timestamp;P1;durP1;ratioP1;P2;durP2;ratioP2
42760;SDS011;31672;47.638;19.026;2022-11-24T00:02:44;13.07;;;6.93;;
42760;SDS011;31672;47.638;19.026;2022-11-24T00:07:48;14.63;;;7.10;;
42760;SDS011;31672;47.638;19.026;2022-11-24T00:12:51;10.30;;;5.87;;
42760;SDS011;31672;47.638;19.026;2022-11-24T00:17:54;12.77;;;6.53;;
42760;SDS011;31672;47.638;19.026;2022-11-24T00:22:57;10.40;;;5.83;;
42760;SDS011;31672;47.638;19.026;2022-11-24T00:28:00;15.87;;;7.87;;
42760;SDS011;31672;47.638;19.026;2022-11-24T00:33:03;14.07;;;7.43;;
42760;SDS011;31672;47.638;19.026;2022-11-24T00:38:07;15.87;;;7.37;;
42760;SDS011;31672;47.638;19.026;2022-11-24T00:43:10;15.40;;;7.17;;
42760;SDS011;31672;47.638;19.026;2022-11-24T00:48:13;22.33;;;9.80;;
42760;SDS011;31672;47.638;19.026;2022-11-24T00:53:16;22.83;;;10.87;;
42760;SDS011;31672;47.638;19.026;2022-11-24T00:58:19;21.80;;;9.30;;
42760;SDS011;31672;47.638;19.026;2022-11-24T01:03:24;22.40;;;10.07;;
42760;SDS011;31672;47.638;19.026;2022-11-24T01:08:27;14.70;;;7.63;;
42760;SDS011;31672;47.638;19.026;2022-11-24T01:13:30;24.20;;;10.13;;
42760;SDS011;31672;47.638;19.026;2022-11-24T01:18:32;21.37;;;8.73;;
42760;SDS011;31672;47.638;19.026;2022-11-24T01:23:35;16.77;;;8.37;;
42760;SDS011;31672;47.638;19.026;2022-11-24T01:28:39;25.20;;;9.60;;
42760;SDS011;31672;47.638;19.026;2022-11-24T01:33:48;25.33;;;9.90;;
42760;SDS011;31672;47.638;19.026;2022-11-24T01:38:51;23.40;;;8.77;;
42760;SDS011;31672;47.638;19.026;2022-11-24T01:43:55;23.67;;;9.37;;
42760;SDS011;31672;47.638;19.026;2022-11-24T01:54:11;27.37;;;11.00;;
42760;SDS011;31672;47.638;19.026;2022-11-24T01:59:36;35.07;;;13.47;;
42760;SDS011;31672;47.638;19.026;2022-11-24T02:04:39;31.50;;;13.10;;
42760;SDS011;31672;47.638;19.026;2022-11-24T02:14:53;39.20;;;15.93;;
42760;SDS011;31672;47.638;19.026;2022-11-24T02:19:58;33.50;;;14.53;;
42760;SDS011;31672;47.638;19.026;2022-11-24T02:30:59;32.63;;;15.37;;
42760;SDS011;31672;47.638;19.026;2022-11-24T02:36:03;37.97;;;16.30;;
42760;SDS011;31672;47.638;19.026;2022-11-24T02:41:07;47.47;;;18.27;;
42760;SDS011;31672;47.638;19.026;2022-11-24T02:46:16;37.10;;;17.07;;
42760;SDS011;31672;47.638;19.026;2022-11-24T02:51:19;41.30;;;16.40;;
42760;SDS011;31672;47.638;19.026;2022-11-24T02:56:22;38.40;;;16.83;;
42760;SDS011;31672;47.638;19.026;2022-11-24T03:01:26;37.43;;;17.13;;
42760;SDS011;31672;47.638;19.026;2022-11-24T03:06:29;43.23;;;17.73;;
42760;SDS011;31672;47.638;19.026;2022-11-24T03:11:32;38.20;;;17.73;;
42760;SDS011;31672;47.638;19.026;2022-11-24T03:16:35;47.03;;;20.10;;
42760;SDS011;31672;47.638;19.026;2022-11-24T03:21:38;44.23;;;19.10;;
42760;SDS011;31672;47.638;19.026;2022-11-24T03:26:41;47.60;;;19.30;;
42760;SDS011;31672;47.638;19.026;2022-11-24T03:31:44;46.43;;;19.43;;
42760;SDS011;31672;47.638;19.026;2022-11-24T03:36:47;40.23;;;16.93;;
42760;SDS011;31672;47.638;19.026;2022-11-24T03:41:50;41.00;;;17.90;;
42760;SDS011;31672;47.638;19.026;2022-11-24T03:46:53;41.73;;;19.10;;
42760;SDS011;31672;47.638;19.026;2022-11-24T03:51:56;40.80;;;17.83;;
42760;SDS011;31672;47.638;19.026;2022-11-24T03:56:59;42.30;;;19.00;;
42760;SDS011;31672;47.638;19.026;2022-11-24T04:02:01;39.70;;;19.50;;
42760;SDS011;31672;47.638;19.026;2022-11-24T04:07:04;43.87;;;20.93;;
42760;SDS011;31672;47.638;19.026;2022-11-24T04:12:08;44.70;;;19.70;;
42760;SDS011;31672;47.638;19.026;2022-11-24T04:17:30;53.50;;;21.05;;
42760;SDS011;31672;47.638;19.026;2022-11-24T04:22:33;42.47;;;20.23;;
42760;SDS011;31672;47.638;19.026;2022-11-24T04:27:37;52.97;;;22.70;;
42760;SDS011;31672;47.638;19.026;2022-11-24T04:32:40;60.20;;;24.07;;
42760;SDS011;31672;47.638;19.026;2022-11-24T04:37:43;59.87;;;24.97;;
42760;SDS011;31672;47.638;19.026;2022-11-24T04:42:53;58.93;;;26.50;;
42760;SDS011;31672;47.638;19.026;2022-11-24T04:47:56;64.47;;;26.57;;
42760;SDS011;31672;47.638;19.026;2022-11-24T04:52:59;65.47;;;25.80;;
42760;SDS011;31672;47.638;19.026;2022-11-24T04:58:02;73.20;;;26.53;;
42760;SDS011;31672;47.638;19.026;2022-11-24T05:03:05;63.37;;;25.43;;
42760;SDS011;31672;47.638;19.026;2022-11-24T05:08:08;70.10;;;26.77;;
42760;SDS011;31672;47.638;19.026;2022-11-24T05:13:11;63.00;;;25.50;;
42760;SDS011;31672;47.638;19.026;2022-11-24T05:18:15;65.30;;;23.93;;
42760;SDS011;31672;47.638;19.026;2022-11-24T05:23:18;68.23;;;23.57;;
42760;SDS011;31672;47.638;19.026;2022-11-24T05:28:20;70.40;;;26.67;;
42760;SDS011;31672;47.638;19.026;2022-11-24T05:33:23;71.93;;;24.63;;
42760;SDS011;31672;47.638;19.026;2022-11-24T05:38:29;66.87;;;25.10;;
42760;SDS011;31672;47.638;19.026;2022-11-24T05:43:34;59.43;;;22.80;;
42760;SDS011;31672;47.638;19.026;2022-11-24T05:48:37;55.07;;;23.23;;
42760;SDS011;31672;47.638;19.026;2022-11-24T05:53:40;52.90;;;21.03;;
42760;SDS011;31672;47.638;19.026;2022-11-24T05:58:43;48.07;;;20.37;;
42760;SDS011;31672;47.638;19.026;2022-11-24T06:03:46;57.70;;;21.30;;
42760;SDS011;31672;47.638;19.026;2022-11-24T06:08:49;56.43;;;22.10;;
42760;SDS011;31672;47.638;19.026;2022-11-24T06:13:52;62.20;;;24.50;;
42760;SDS011;31672;47.638;19.026;2022-11-24T06:18:56;50.80;;;21.90;;
42760;SDS011;31672;47.638;19.026;2022-11-24T06:23:58;49.17;;;20.17;;
42760;SDS011;31672;47.638;19.026;2022-11-24T06:29:01;46.43;;;18.40;;
42760;SDS011;31672;47.638;19.026;2022-11-24T06:34:05;44.53;;;19.27;;
42760;SDS011;31672;47.638;19.026;2022-11-24T06:39:12;44.97;;;18.07;;
42760;SDS011;31672;47.638;19.026;2022-11-24T06:44:15;42.80;;;16.70;;
42760;SDS011;31672;47.638;19.026;2022-11-24T06:49:18;41.47;;;15.40;;
42760;SDS011;31672;47.638;19.026;2022-11-24T06:54:21;44.00;;;18.37;;
42760;SDS011;31672;47.638;19.026;2022-11-24T06:59:24;35.80;;;16.17;;
42760;SDS011;31672;47.638;19.026;2022-11-24T07:04:28;36.67;;;14.57;;
42760;SDS011;31672;47.638;19.026;2022-11-24T07:09:31;33.63;;;15.10;;
42760;SDS011;31672;47.638;19.026;2022-11-24T07:14:34;51.43;;;21.37;;
42760;SDS011;31672;47.638;19.026;2022-11-24T07:19:38;45.43;;;18.60;;
42760;SDS011;31672;47.638;19.026;2022-11-24T07:24:41;40.07;;;17.73;;
42760;SDS011;31672;47.638;19.026;2022-11-24T07:29:43;41.50;;;15.50;;
42760;SDS011;31672;47.638;19.026;2022-11-24T07:34:46;30.83;;;13.37;;
42760;SDS011;31672;47.638;19.026;2022-11-24T07:39:49;28.80;;;11.57;;
42760;SDS011;31672;47.638;19.026;2022-11-24T07:44:52;30.77;;;12.70;;
42760;SDS011;31672;47.638;19.026;2022-11-24T07:49:55;26.40;;;11.37;;
42760;SDS011;31672;47.638;19.026;2022-11-24T07:54:58;35.73;;;16.07;;
42760;SDS011;31672;47.638;19.026;2022-11-24T08:00:02;42.07;;;15.90;;
42760;SDS011;31672;47.638;19.026;2022-11-24T08:05:07;35.17;;;16.37;;
42760;SDS011;31672;47.638;19.026;2022-11-24T08:10:10;44.73;;;17.33;;
42760;SDS011;31672;47.638;19.026;2022-11-24T08:15:13;48.80;;;18.30;;
42760;SDS011;31672;47.638;19.026;2022-11-24T08:20:16;48.17;;;17.67;;
42760;SDS011;31672;47.638;19.026;2022-11-24T08:25:20;36.87;;;16.87;;
42760;SDS011;31672;47.638;19.026;2022-11-24T08:30:25;40.47;;;15.70;;
42760;SDS011;31672;47.638;19.026;2022-11-24T08:35:29;31.60;;;14.53;;
42760;SDS011;31672;47.638;19.026;2022-11-24T08:40:31;32.87;;;14.03;;
42760;SDS011;31672;47.638;19.026;2022-11-24T08:45:35;30.60;;;13.70;;
42760;SDS011;31672;47.638;19.026;2022-11-24T08:50:43;25.20;;;11.40;;
42760;SDS011;31672;47.638;19.026;2022-11-24T08:55:46;36.20;;;14.70;;
42760;SDS011;31672;47.638;19.026;2022-11-24T09:00:48;35.13;;;15.33;;
42760;SDS011;31672;47.638;19.026;2022-11-24T09:05:51;32.77;;;15.53;;
42760;SDS011;31672;47.638;19.026;2022-11-24T09:10:58;34.63;;;13.67;;
42760;SDS011;31672;47.638;19.026;2022-11-24T09:16:10;34.20;;;15.10;;
42760;SDS011;31672;47.638;19.026;2022-11-24T09:21:19;43.73;;;16.63;;
42760;SDS011;31672;47.638;19.026;2022-11-24T09:26:27;40.70;;;15.67;;
42760;SDS011;31672;47.638;19.026;2022-11-24T09:31:33;34.40;;;16.17;;
42760;SDS011;31672;47.638;19.026;2022-11-24T09:36:38;36.13;;;15.90;;
42760;SDS011;31672;47.638;19.026;2022-11-24T09:57:44;34.10;;;13.93;;
42760;SDS011;31672;47.638;19.026;2022-11-24T10:02:57;27.37;;;12.30;;
42760;SDS011;31672;47.638;19.026;2022-11-24T10:08:22;29.57;;;13.13;;
42760;SDS011;31672;47.638;19.026;2022-11-24T10:13:41;29.57;;;13.23;;
42760;SDS011;31672;47.638;19.026;2022-11-24T10:30:19;28.00;;;12.53;;
42760;SDS011;31672;47.638;19.026;2022-11-24T10:35:27;33.97;;;14.47;;
42760;SDS011;31672;47.638;19.026;2022-11-24T10:40:39;25.47;;;11.80;;
42760;SDS011;31672;47.638;19.026;2022-11-24T10:45:59;27.37;;;11.50;;
42760;SDS011;31672;47.638;19.026;2022-11-24T10:56:41;30.63;;;12.13;;
42760;SDS011;31672;47.638;19.026;2022-11-24T11:01:45;26.43;;;11.93;;
42760;SDS011;31672;47.638;19.026;2022-11-24T11:06:49;31.13;;;12.80;;
42760;SDS011;31672;47.638;19.026;2022-11-24T11:11:52;26.97;;;11.30;;
42760;SDS011;31672;47.638;19.026;2022-11-24T11:16:55;26.13;;;10.23;;
42760;SDS011;31672;47.638;19.026;2022-11-24T11:22:44;24.77;;;9.97;;
42760;SDS011;31672;47.638;19.026;2022-11-24T11:27:49;22.23;;;10.17;;
42760;SDS011;31672;47.638;19.026;2022-11-24T11:32:53;23.67;;;11.67;;
42760;SDS011;31672;47.638;19.026;2022-11-24T11:38:19;22.67;;;9.60;;
42760;SDS011;31672;47.638;19.026;2022-11-24T11:43:26;20.53;;;9.03;;
42760;SDS011;31672;47.638;19.026;2022-11-24T11:48:35;18.97;;;9.37;;
42760;SDS011;31672;47.638;19.026;2022-11-24T11:53:48;19.43;;;10.07;;
42760;SDS011;31672;47.638;19.026;2022-11-24T12:10:36;21.97;;;9.57;;
42760;SDS011;31672;47.638;19.026;2022-11-24T12:15:58;21.23;;;10.10;;
42760;SDS011;31672;47.638;19.026;2022-11-24T12:37:24;22.08;;;9.50;;
42760;SDS011;31672;47.638;19.026;2022-11-24T12:42:59;19.37;;;9.07;;
42760;SDS011;31672;47.638;19.026;2022-11-24T12:48:29;18.93;;;8.80;;
42760;SDS011;31672;47.638;19.026;2022-11-24T12:53:47;20.63;;;8.40;;
42760;SDS011;31672;47.638;19.026;2022-11-24T12:58:59;22.93;;;9.13;;
42760;SDS011;31672;47.638;19.026;2022-11-24T13:04:20;16.97;;;7.77;;
42760;SDS011;31672;47.638;19.026;2022-11-24T13:10:20;17.93;;;8.20;;
42760;SDS011;31672;47.638;19.026;2022-11-24T13:31:42;18.87;;;8.13;;
42760;SDS011;31672;47.638;19.026;2022-11-24T13:36:52;19.03;;;8.63;;
42760;SDS011;31672;47.638;19.026;2022-11-24T13:47:02;27.87;;;11.67;;
42760;SDS011;31672;47.638;19.026;2022-11-24T14:08:24;16.93;;;7.87;;
42760;SDS011;31672;47.638;19.026;2022-11-24T14:13:31;16.63;;;7.90;;
42760;SDS011;31672;47.638;19.026;2022-11-24T14:18:35;18.57;;;8.30;;
42760;SDS011;31672;47.638;19.026;2022-11-24T14:23:45;18.10;;;8.10;;
42760;SDS011;31672;47.638;19.026;2022-11-24T14:29:36;15.47;;;7.97;;
42760;SDS011;31672;47.638;19.026;2022-11-24T14:35:24;18.30;;;8.30;;
42760;SDS011;31672;47.638;19.026;2022-11-24T14:45:57;19.07;;;8.90;;
42760;SDS011;31672;47.638;19.026;2022-11-24T14:56:34;18.83;;;8.40;;
42760;SDS011;31672;47.638;19.026;2022-11-24T15:01:39;21.57;;;9.13;;
42760;SDS011;31672;47.638;19.026;2022-11-24T15:06:48;20.33;;;9.40;;
42760;SDS011;31672;47.638;19.026;2022-11-24T15:12:31;18.17;;;8.30;;
42760;SDS011;31672;47.638;19.026;2022-11-24T15:17:49;20.47;;;9.27;;
42760;SDS011;31672;47.638;19.026;2022-11-24T15:28:25;21.07;;;10.17;;
42760;SDS011;31672;47.638;19.026;2022-11-24T15:33:28;20.60;;;10.77;;
42760;SDS011;31672;47.638;19.026;2022-11-24T15:38:32;24.67;;;11.33;;
42760;SDS011;31672;47.638;19.026;2022-11-24T15:43:38;21.50;;;10.93;;
42760;SDS011;31672;47.638;19.026;2022-11-24T15:48:42;73.13;;;31.70;;
42760;SDS011;31672;47.638;19.026;2022-11-24T15:53:49;23.77;;;11.93;;
42760;SDS011;31672;47.638;19.026;2022-11-24T15:59:02;21.47;;;10.07;;
42760;SDS011;31672;47.638;19.026;2022-11-24T16:04:05;23.53;;;9.77;;
42760;SDS011;31672;47.638;19.026;2022-11-24T16:09:11;21.20;;;8.67;;
42760;SDS011;31672;47.638;19.026;2022-11-24T16:14:17;19.80;;;9.07;;
42760;SDS011;31672;47.638;19.026;2022-11-24T16:19:20;17.90;;;8.43;;
42760;SDS011;31672;47.638;19.026;2022-11-24T16:24:23;22.63;;;10.10;;
42760;SDS011;31672;47.638;19.026;2022-11-24T16:29:27;23.13;;;9.23;;
42760;SDS011;31672;47.638;19.026;2022-11-24T16:34:29;21.40;;;9.03;;
42760;SDS011;31672;47.638;19.026;2022-11-24T16:39:32;29.17;;;12.07;;
42760;SDS011;31672;47.638;19.026;2022-11-24T16:44:38;23.20;;;10.87;;
42760;SDS011;31672;47.638;19.026;2022-11-24T16:49:41;24.50;;;10.60;;
42760;SDS011;31672;47.638;19.026;2022-11-24T16:54:44;20.50;;;10.10;;
42760;SDS011;31672;47.638;19.026;2022-11-24T16:59:48;26.27;;;10.80;;
42760;SDS011;31672;47.638;19.026;2022-11-24T17:04:51;24.70;;;10.93;;
42760;SDS011;31672;47.638;19.026;2022-11-24T17:09:54;25.33;;;11.10;;
42760;SDS011;31672;47.638;19.026;2022-11-24T17:14:58;30.90;;;11.60;;
42760;SDS011;31672;47.638;19.026;2022-11-24T17:20:21;22.57;;;10.70;;
42760;SDS011;31672;47.638;19.026;2022-11-24T17:25:23;22.10;;;9.30;;
42760;SDS011;31672;47.638;19.026;2022-11-24T17:30:26;30.40;;;9.90;;
42760;SDS011;31672;47.638;19.026;2022-11-24T17:35:29;21.13;;;9.33;;
42760;SDS011;31672;47.638;19.026;2022-11-24T17:40:35;22.23;;;9.63;;
42760;SDS011;31672;47.638;19.026;2022-11-24T17:45:38;26.17;;;10.57;;
42760;SDS011;31672;47.638;19.026;2022-11-24T17:50:41;21.77;;;10.40;;
42760;SDS011;31672;47.638;19.026;2022-11-24T17:55:45;24.33;;;10.97;;
42760;SDS011;31672;47.638;19.026;2022-11-24T18:00:49;22.13;;;10.13;;
42760;SDS011;31672;47.638;19.026;2022-11-24T18:05:53;29.70;;;12.13;;
42760;SDS011;31672;47.638;19.026;2022-11-24T18:11:01;31.73;;;15.73;;
42760;SDS011;31672;47.638;19.026;2022-11-24T18:16:32;27.40;;;11.73;;
42760;SDS011;31672;47.638;19.026;2022-11-24T18:21:36;30.83;;;13.00;;
42760;SDS011;31672;47.638;19.026;2022-11-24T18:26:46;26.80;;;11.90;;
42760;SDS011;31672;47.638;19.026;2022-11-24T18:31:49;25.73;;;11.00;;
42760;SDS011;31672;47.638;19.026;2022-11-24T18:36:52;25.93;;;11.80;;
42760;SDS011;31672;47.638;19.026;2022-11-24T18:41:55;23.90;;;10.17;;
42760;SDS011;31672;47.638;19.026;2022-11-24T18:46:58;25.07;;;11.17;;
42760;SDS011;31672;47.638;19.026;2022-11-24T18:52:00;23.33;;;10.33;;
42760;SDS011;31672;47.638;19.026;2022-11-24T18:57:03;18.27;;;9.10;;
42760;SDS011;31672;47.638;19.026;2022-11-24T19:02:07;25.67;;;10.60;;
42760;SDS011;31672;47.638;19.026;2022-11-24T19:07:11;24.47;;;11.00;;
42760;SDS011;31672;47.638;19.026;2022-11-24T19:12:18;27.17;;;13.63;;
42760;SDS011;31672;47.638;19.026;2022-11-24T19:17:21;23.73;;;10.57;;
42760;SDS011;31672;47.638;19.026;2022-11-24T19:22:24;21.83;;;9.00;;
42760;SDS011;31672;47.638;19.026;2022-11-24T19:27:26;29.23;;;10.97;;
42760;SDS011;31672;47.638;19.026;2022-11-24T19:32:30;21.33;;;9.70;;
42760;SDS011;31672;47.638;19.026;2022-11-24T19:37:33;25.70;;;11.17;;
42760;SDS011;31672;47.638;19.026;2022-11-24T19:42:36;26.47;;;11.63;;
42760;SDS011;31672;47.638;19.026;2022-11-24T19:47:39;24.87;;;10.70;;
42760;SDS011;31672;47.638;19.026;2022-11-24T19:52:42;25.23;;;11.20;;
42760;SDS011;31672;47.638;19.026;2022-11-24T19:57:45;21.37;;;10.03;;
42760;SDS011;31672;47.638;19.026;2022-11-24T20:02:49;22.93;;;10.73;;
42760;SDS011;31672;47.638;19.026;2022-11-24T20:07:52;27.87;;;11.43;;
42760;SDS011;31672;47.638;19.026;2022-11-24T20:12:55;24.10;;;10.97;;
42760;SDS011;31672;47.638;19.026;2022-11-24T20:17:58;20.67;;;9.87;;
42760;SDS011;31672;47.638;19.026;2022-11-24T20:23:01;26.03;;;11.47;;
42760;SDS011;31672;47.638;19.026;2022-11-24T20:28:05;23.00;;;10.73;;
42760;SDS011;31672;47.638;19.026;2022-11-24T20:33:08;23.57;;;10.70;;
42760;SDS011;31672;47.638;19.026;2022-11-24T20:38:11;19.47;;;10.17;;
42760;SDS011;31672;47.638;19.026;2022-11-24T20:43:14;28.03;;;10.80;;
42760;SDS011;31672;47.638;19.026;2022-11-24T20:48:17;25.17;;;11.27;;
42760;SDS011;31672;47.638;19.026;2022-11-24T20:53:19;23.87;;;10.90;;
42760;SDS011;31672;47.638;19.026;2022-11-24T20:58:22;23.47;;;10.70;;
42760;SDS011;31672;47.638;19.026;2022-11-24T21:03:25;20.60;;;9.77;;
42760;SDS011;31672;47.638;19.026;2022-11-24T21:08:32;29.40;;;11.13;;
42760;SDS011;31672;47.638;19.026;2022-11-24T21:13:38;24.50;;;11.70;;
42760;SDS011;31672;47.638;19.026;2022-11-24T21:18:45;27.17;;;12.93;;
42760;SDS011;31672;47.638;19.026;2022-11-24T21:23:53;26.73;;;12.87;;
42760;SDS011;31672;47.638;19.026;2022-11-24T21:28:56;26.00;;;13.60;;
42760;SDS011;31672;47.638;19.026;2022-11-24T21:33:59;29.20;;;13.77;;
42760;SDS011;31672;47.638;19.026;2022-11-24T21:39:02;29.70;;;12.93;;
42760;SDS011;31672;47.638;19.026;2022-11-24T21:44:05;24.17;;;12.00;;
42760;SDS011;31672;47.638;19.026;2022-11-24T21:49:08;26.13;;;11.77;;
42760;SDS011;31672;47.638;19.026;2022-11-24T21:54:11;22.53;;;10.43;;
42760;SDS011;31672;47.638;19.026;2022-11-24T21:59:14;22.47;;;11.20;;
42760;SDS011;31672;47.638;19.026;2022-11-24T22:04:17;23.73;;;10.93;;
42760;SDS011;31672;47.638;19.026;2022-11-24T22:09:20;23.17;;;11.10;;
42760;SDS011;31672;47.638;19.026;2022-11-24T22:14:23;23.63;;;11.20;;
42760;SDS011;31672;47.638;19.026;2022-11-24T22:19:26;24.07;;;11.70;;
42760;SDS011;31672;47.638;19.026;2022-11-24T22:24:28;21.77;;;11.10;;
42760;SDS011;31672;47.638;19.026;2022-11-24T22:29:32;24.80;;;10.67;;
42760;SDS011;31672;47.638;19.026;2022-11-24T22:34:35;23.23;;;11.33;;
42760;SDS011;31672;47.638;19.026;2022-11-24T22:39:38;24.53;;;11.73;;
42760;SDS011;31672;47.638;19.026;2022-11-24T22:44:41;27.10;;;12.43;;
42760;SDS011;31672;47.638;19.026;2022-11-24T22:49:44;24.17;;;11.53;;
42760;SDS011;31672;47.638;19.026;2022-11-24T22:54:47;28.73;;;13.33;;
42760;SDS011;31672;47.638;19.026;2022-11-24T22:59:50;24.83;;;12.00;;
42760;SDS011;31672;47.638;19.026;2022-11-24T23:04:52;23.80;;;11.63;;
42760;SDS011;31672;47.638;19.026;2022-11-24T23:09:55;23.43;;;11.37;;
42760;SDS011;31672;47.638;19.026;2022-11-24T23:14:58;24.93;;;11.57;;
42760;SDS011;31672;47.638;19.026;2022-11-24T23:20:01;23.90;;;11.43;;
42760;SDS011;31672;47.638;19.026;2022-11-24T23:25:04;29.40;;;13.83;;
42760;SDS011;31672;47.638;19.026;2022-11-24T23:30:07;31.57;;;13.00;;
42760;SDS011;31672;47.638;19.026;2022-11-24T23:35:10;28.90;;;13.40;;
42760;SDS011;31672;47.638;19.026;2022-11-24T23:40:15;35.83;;;13.53;;
42760;SDS011;31672;47.638;19.026;2022-11-24T23:45:18;25.53;;;12.37;;
42760;SDS011;31672;47.638;19.026;2022-11-24T23:50:21;28.63;;;12.67;;
42760;SDS011;31672;47.638;19.026;2022-11-24T23:55:24;32.30;;;13.47;;
